KCHS/CHS METAR and TAF weather

Enter ICAO airport designator
Station Type Date Time Source
KCHS METAR 2018/12/12 04:56 UTC NOAA

KCHS 120456Z 25004KT 10SM CLR 03/03 A3024 RMK AO2 SLP239 T00330028 401330006


Station Type Date Time Source
KCHS Decoded METAR 2018/12/12 04:56 UTC NOAA

CHARLESTON INT'L AIRPORT, SC, United States (KCHS) 32-54N 080-02W 13M
Dec 11, 2018 - 11:56 PM EST / 2018.12.12 0456 UTC
Wind: from the WSW (250 degrees) at 5 MPH (4 KT):0
Visibility: 10 mile(s):0
Sky conditions: clear
Temperature: 37.9 F (3.3 C)
Dew Point: 37.0 F (2.8 C)
Relative Humidity: 96%
Pressure (altimeter): 30.24 in. Hg (1024 hPa)
ob: KCHS 120456Z 25004KT 10SM CLR 03/03 A3024 RMK AO2 SLP239 T00330028 401330006
cycle: 5

Station Type Date Time Source
KCHS TAF 2018/12/11 18:31 UTC NOAA

TAF KCHS 111726Z 1118/1218 33011KT P6SM SKC
FM112200 29007KT P6SM SKC
FM120300 VRB03KT P6SM SKC


Example: see airport list